createdAt,value
2022-11-28T00:02:00.563Z,1.27
2022-11-28T00:04:31.521Z,1.48
2022-11-28T00:07:02.280Z,1.30
2022-11-28T00:09:33.377Z,1.40
2022-11-28T00:12:04.531Z,1.40
2022-11-28T00:14:35.285Z,1.40
2022-11-28T00:17:06.444Z,1.05
2022-11-28T00:19:37.648Z,1.42
2022-11-28T00:22:08.629Z,1.30
2022-11-28T00:24:40.240Z,1.17
2022-11-28T00:27:11.814Z,1.13
2022-11-28T00:29:42.939Z,1.10
2022-11-28T00:32:14.351Z,1.08
2022-11-28T00:34:45.130Z,1.08
2022-11-28T00:37:16.525Z,1.00
2022-11-28T00:39:47.456Z,1.00
2022-11-28T00:42:22.080Z,1.55
2022-11-28T00:44:53.011Z,1.48
2022-11-28T00:47:23.981Z,1.30
2022-11-28T00:49:54.971Z,1.38
2022-11-28T00:52:25.873Z,1.10
2022-11-28T00:54:57.166Z,1.38
2022-11-28T00:57:28.097Z,1.10
2022-11-28T00:59:59.083Z,1.13
2022-11-28T01:02:30.790Z,1.08
2022-11-28T01:05:03.029Z,1.10
2022-11-28T01:07:35.812Z,1.00
2022-11-28T01:10:07.608Z,0.90
2022-11-28T01:12:38.627Z,1.00
2022-11-28T01:15:12.417Z,1.00
2022-11-28T01:17:43.539Z,1.00
2022-11-28T01:20:15.235Z,1.00
2022-11-28T01:22:46.342Z,1.20
2022-11-28T01:25:17.677Z,1.20
2022-11-28T01:27:48.821Z,0.80
2022-11-28T01:30:20.075Z,0.80
2022-11-28T01:32:51.042Z,1.00
2022-11-28T01:35:22.264Z,0.70
2022-11-28T01:37:53.754Z,1.00
2022-11-28T01:40:24.732Z,1.00
2022-11-28T01:42:55.609Z,0.90
2022-11-28T01:45:32.777Z,0.90
2022-11-28T01:48:05.444Z,1.00
2022-11-28T01:50:37.592Z,1.00
2022-11-28T01:53:11.463Z,0.90
2022-11-28T01:55:54.809Z,1.00
2022-11-28T01:58:26.999Z,1.27
2022-11-28T02:00:57.967Z,0.85
2022-11-28T02:03:36.010Z,0.90
2022-11-28T02:06:07.226Z,0.90
2022-11-28T02:08:39.259Z,0.73
2022-11-28T02:14:13.067Z,0.90
2022-11-28T02:17:14.247Z,0.82
2022-11-28T02:20:06.394Z,0.80
2022-11-28T02:23:01.437Z,1.10
2022-11-28T02:26:00.627Z,0.90
2022-11-28T02:28:51.708Z,0.70
2022-11-28T02:31:37.303Z,0.80
2022-11-28T02:34:34.945Z,0.90
2022-11-28T02:37:16.903Z,1.02
2022-11-28T02:39:57.610Z,0.80
2022-11-28T02:42:45.701Z,1.00
2022-11-28T02:45:26.317Z,1.10
2022-11-28T02:48:15.211Z,0.90
2022-11-28T02:51:09.941Z,1.58
2022-11-28T02:53:41.835Z,1.50
2022-11-28T02:56:13.731Z,1.63
2022-11-28T02:58:44.758Z,1.20
2022-11-28T03:01:21.951Z,0.88
2022-11-28T03:03:59.365Z,0.70
2022-11-28T03:06:51.228Z,0.80
2022-11-28T03:09:46.569Z,1.20
2022-11-28T03:12:30.584Z,1.20
2022-11-28T03:15:07.222Z,0.88
2022-11-28T03:17:59.329Z,1.33
2022-11-28T03:20:50.169Z,0.98
2022-11-28T03:23:45.150Z,0.90
2022-11-28T03:26:38.709Z,0.95
2022-11-28T03:29:30.723Z,0.70
2022-11-28T03:34:45.923Z,0.80
2022-11-28T03:37:29.217Z,0.98
2022-11-28T03:40:05.331Z,0.82
2022-11-28T03:42:41.172Z,0.68
2022-11-28T03:45:24.848Z,0.80
2022-11-28T03:48:03.109Z,1.00
2022-11-28T03:50:44.233Z,0.80
2022-11-28T03:53:20.986Z,0.80
2022-11-28T03:56:00.043Z,1.08
2022-11-28T03:58:40.771Z,1.15
2022-11-28T04:01:41.818Z,1.67
2022-11-28T04:04:22.264Z,1.60
2022-11-28T04:06:57.837Z,1.20
2022-11-28T04:09:42.923Z,1.90
2022-11-28T04:12:32.040Z,1.05
2022-11-28T04:15:13.906Z,0.85
2022-11-28T04:18:00.189Z,1.23
2022-11-28T04:20:55.598Z,1.00
2022-11-28T04:23:27.263Z,1.10
2022-11-28T04:28:33.899Z,0.80
2022-11-28T04:31:07.402Z,0.93
2022-11-28T04:33:41.891Z,1.00
2022-11-28T04:36:14.140Z,1.20
2022-11-28T04:38:50.885Z,1.20
2022-11-28T04:41:44.604Z,1.00
2022-11-28T04:44:27.541Z,0.90
2022-11-28T04:46:59.553Z,1.00
2022-11-28T04:52:06.940Z,0.85
2022-11-28T04:54:40.773Z,1.30
2022-11-28T04:57:29.202Z,1.20
2022-11-28T05:00:02.616Z,0.90
2022-11-28T05:02:34.766Z,1.25
2022-11-28T05:05:17.626Z,1.33
2022-11-28T05:07:48.977Z,1.08
2022-11-28T05:10:20.805Z,1.02
2022-11-28T05:12:51.952Z,1.23
2022-11-28T05:15:22.969Z,1.20
2022-11-28T05:17:54.174Z,1.33
2022-11-28T05:20:25.090Z,1.00
2022-11-28T05:22:56.198Z,1.30
2022-11-28T05:25:26.988Z,1.17
2022-11-28T05:27:58.103Z,1.10
2022-11-28T05:30:28.876Z,1.13
2022-11-28T05:33:01.375Z,1.10
2022-11-28T05:35:32.180Z,1.48
2022-11-28T05:38:03.443Z,1.05
2022-11-28T05:40:34.232Z,1.10
2022-11-28T05:43:05.606Z,1.17
2022-11-28T05:45:36.574Z,1.02
2022-11-28T05:48:07.904Z,1.23
2022-11-28T05:50:41.790Z,1.10
2022-11-28T05:53:13.315Z,1.10
2022-11-28T05:55:44.109Z,1.20
2022-11-28T05:58:14.842Z,1.10
2022-11-28T06:00:45.867Z,1.02
2022-11-28T06:03:16.981Z,1.00
2022-11-28T06:05:48.287Z,1.02
2022-11-28T06:08:19.295Z,1.25
2022-11-28T06:11:01.444Z,1.03
2022-11-28T06:13:32.212Z,1.30
2022-11-28T06:16:03.198Z,1.10
2022-11-28T06:18:34.155Z,1.20
2022-11-28T06:21:06.413Z,1.17
2022-11-28T06:23:37.985Z,1.20
2022-11-28T06:26:10.654Z,1.27
2022-11-28T06:28:42.500Z,1.20
2022-11-28T06:33:44.865Z,1.00
2022-11-28T06:36:17.477Z,1.10
2022-11-28T06:38:48.956Z,0.88
2022-11-28T06:41:21.484Z,1.00
2022-11-28T06:43:53.372Z,1.20
2022-11-28T06:46:24.748Z,1.10
2022-11-28T06:48:55.831Z,1.13
2022-11-28T06:51:27.003Z,1.00
2022-11-28T06:53:58.047Z,0.95
2022-11-28T06:56:29.028Z,1.40
2022-11-28T06:59:01.660Z,1.00
2022-11-28T07:01:33.913Z,1.10
2022-11-28T07:04:04.760Z,1.08
2022-11-28T07:06:36.428Z,1.13
2022-11-28T07:09:07.286Z,1.25
2022-11-28T07:11:38.120Z,1.73
2022-11-28T07:14:09.255Z,1.38
2022-11-28T07:16:40.741Z,1.30
2022-11-28T07:19:14.445Z,0.95
2022-11-28T07:21:45.623Z,0.98
2022-11-28T07:24:16.525Z,0.90
2022-11-28T07:26:48.894Z,1.00
2022-11-28T07:29:21.221Z,0.85
2022-11-28T07:31:52.411Z,1.17
2022-11-28T07:34:23.378Z,0.80
2022-11-28T07:36:54.082Z,1.00
2022-11-28T07:39:25.344Z,1.17
2022-11-28T07:41:56.410Z,0.90
2022-11-28T07:46:58.674Z,0.93
2022-11-28T07:49:30.009Z,1.00
2022-11-28T07:52:01.044Z,1.55
2022-11-28T07:54:31.791Z,1.00
2022-11-28T07:57:17.972Z,1.42
2022-11-28T07:59:48.757Z,1.13
2022-11-28T08:02:20.298Z,0.90
2022-11-28T08:04:55.156Z,1.10
2022-11-28T08:07:26.426Z,1.08
2022-11-28T08:09:57.348Z,1.30
2022-11-28T08:12:28.126Z,0.93
2022-11-28T08:15:00.018Z,1.10
2022-11-28T08:17:31.777Z,1.10
2022-11-28T08:20:02.693Z,1.40
2022-11-28T08:22:33.701Z,1.23
2022-11-28T08:25:04.938Z,0.98
2022-11-28T08:27:36.364Z,1.00
2022-11-28T08:30:08.419Z,0.90
2022-11-28T08:32:39.681Z,1.05
2022-11-28T08:35:11.140Z,1.05
2022-11-28T08:37:42.093Z,1.27
2022-11-28T08:40:13.496Z,1.05
2022-11-28T08:42:44.972Z,0.80
2022-11-28T08:45:17.585Z,0.93
2022-11-28T08:47:48.865Z,1.00
2022-11-28T08:50:20.047Z,1.13
2022-11-28T08:52:51.478Z,0.90
2022-11-28T08:55:31.720Z,1.15
2022-11-28T08:58:03.452Z,1.30
2022-11-28T09:00:35.162Z,0.90
2022-11-28T09:03:06.981Z,0.82
2022-11-28T09:05:37.947Z,1.30
2022-11-28T09:08:11.653Z,1.20
2022-11-28T09:10:44.072Z,0.90
2022-11-28T09:13:17.242Z,0.90
2022-11-28T09:15:52.532Z,1.05
2022-11-28T09:18:24.642Z,1.00
2022-11-28T09:21:08.997Z,1.10
2022-11-28T09:23:42.513Z,0.90
2022-11-28T09:26:19.436Z,1.38
2022-11-28T09:28:50.377Z,1.52
2022-11-28T09:31:22.305Z,1.10
2022-11-28T09:33:53.454Z,1.23
2022-11-28T09:36:26.013Z,0.90
2022-11-28T09:38:57.001Z,0.90
2022-11-28T09:42:06.109Z,1.00
2022-11-28T09:44:39.884Z,0.95
2022-11-28T09:47:38.276Z,1.20
2022-11-28T09:50:23.196Z,1.00
2022-11-28T09:53:24.206Z,1.13
2022-11-28T09:55:57.100Z,1.15
2022-11-28T09:58:43.212Z,1.10
2022-11-28T10:01:26.814Z,1.40
2022-11-28T10:04:19.145Z,1.13
2022-11-28T10:06:59.515Z,1.30
2022-11-28T10:09:33.062Z,2.60
2022-11-28T10:12:49.255Z,4.40
2022-11-28T10:15:42.316Z,3.30
2022-11-28T10:18:39.694Z,2.25
2022-11-28T10:21:38.361Z,1.80
2022-11-28T10:24:23.621Z,1.50
2022-11-28T10:26:58.135Z,1.20
2022-11-28T10:29:35.760Z,1.30
2022-11-28T10:32:07.314Z,1.30
2022-11-28T10:34:45.164Z,1.50
2022-11-28T10:37:23.075Z,1.20
2022-11-28T10:39:54.169Z,1.70
2022-11-28T10:42:41.911Z,1.50
2022-11-28T10:45:34.332Z,1.50
2022-11-28T10:48:37.278Z,1.55
2022-11-28T10:51:24.227Z,1.10
2022-11-28T10:54:30.169Z,1.20
2022-11-28T10:57:17.780Z,1.30
2022-11-28T11:00:03.130Z,1.10
2022-11-28T11:02:51.435Z,0.60
2022-11-28T11:05:31.590Z,1.00
2022-11-28T11:08:26.386Z,0.90
2022-11-28T11:11:13.305Z,0.75
2022-11-28T11:14:04.965Z,0.88
2022-11-28T11:16:55.207Z,0.90
2022-11-28T11:19:28.698Z,0.90
2022-11-28T11:22:22.502Z,0.90
2022-11-28T11:25:14.538Z,0.90
2022-11-28T11:27:55.869Z,0.90
2022-11-28T11:30:40.655Z,1.10
2022-11-28T11:33:20.633Z,1.02
2022-11-28T11:35:51.978Z,0.90
2022-11-28T11:38:34.798Z,1.08
2022-11-28T11:41:43.436Z,1.05
2022-11-28T11:44:17.464Z,1.10
2022-11-28T11:46:56.114Z,1.10
2022-11-28T11:49:33.815Z,1.10
2022-11-28T12:02:08.176Z,1.52
2022-11-28T12:04:51.106Z,1.33
2022-11-28T12:07:34.133Z,0.93
2022-11-28T12:10:07.086Z,0.90
2022-11-28T12:12:39.527Z,0.65
2022-11-28T12:15:24.043Z,1.00
2022-11-28T13:22:02.633Z,0.73
2022-11-28T13:25:10.608Z,0.70
2022-11-28T13:27:47.454Z,0.70
2022-11-28T13:30:26.107Z,0.75
2022-11-28T13:33:21.478Z,0.80
2022-11-28T13:35:52.648Z,0.70
2022-11-28T13:38:50.482Z,0.80
2022-11-28T13:45:58.230Z,0.75
2022-11-28T13:53:12.739Z,0.80
2022-11-28T13:55:48.586Z,0.60
2022-11-28T13:58:30.877Z,0.70
2022-11-28T14:01:15.304Z,0.70
2022-11-28T14:04:02.887Z,0.82
2022-11-28T14:06:49.321Z,1.02
2022-11-28T14:10:05.452Z,1.13
2022-11-28T14:13:06.074Z,0.77
2022-11-28T14:15:43.539Z,0.90
2022-11-28T14:18:54.424Z,1.00
2022-11-28T14:21:32.024Z,1.00
2022-11-28T14:24:39.248Z,1.25
2022-11-28T14:27:23.402Z,1.10
2022-11-28T14:29:56.237Z,1.00
2022-11-28T14:32:44.666Z,1.05
2022-11-28T14:35:40.110Z,1.00
2022-11-28T14:38:35.113Z,1.00
2022-11-28T14:41:13.065Z,1.15
2022-11-28T14:43:50.233Z,1.00
2022-11-28T14:46:31.828Z,0.95
2022-11-28T14:49:02.987Z,0.90
2022-11-28T14:51:53.592Z,1.00
2022-11-28T14:54:32.573Z,1.00
2022-11-28T14:57:04.275Z,1.33
2022-11-28T15:02:14.301Z,0.90
2022-11-28T15:05:01.004Z,0.80
2022-11-28T15:07:48.849Z,0.80
2022-11-28T15:10:44.967Z,0.95
2022-11-28T15:13:22.191Z,0.90
2022-11-28T15:15:55.287Z,0.90
2022-11-28T15:18:27.695Z,0.93
2022-11-28T15:21:04.435Z,0.90
2022-11-28T15:23:38.513Z,0.90
2022-11-28T15:26:17.547Z,0.70
2022-11-28T15:28:49.518Z,0.90
2022-11-28T15:31:25.262Z,1.00
2022-11-28T15:33:56.560Z,0.70
2022-11-28T15:36:30.390Z,0.80
2022-11-28T15:39:01.468Z,1.00
2022-11-28T15:41:33.214Z,0.90
2022-11-28T15:44:04.208Z,1.10
2022-11-28T15:46:36.674Z,1.00
2022-11-28T15:49:08.785Z,1.30
2022-11-28T15:51:39.817Z,1.08
2022-11-28T15:54:37.230Z,0.90
2022-11-28T15:57:09.464Z,1.05
2022-11-28T15:59:40.703Z,1.10
2022-11-28T16:02:32.078Z,0.90
2022-11-28T16:05:11.694Z,0.90
2022-11-28T16:07:46.807Z,0.98
2022-11-28T16:10:28.100Z,0.90
2022-11-28T16:13:04.494Z,1.00
2022-11-28T16:15:35.301Z,1.00
2022-11-28T16:18:06.515Z,0.90
2022-11-28T16:20:38.423Z,1.00
2022-11-28T16:23:32.100Z,1.13
2022-11-28T16:26:04.119Z,1.00
2022-11-28T16:28:38.367Z,0.98
2022-11-28T16:31:14.116Z,0.98
2022-11-28T16:33:46.986Z,0.90
2022-11-28T16:36:17.968Z,1.05
2022-11-28T16:38:50.246Z,1.02
2022-11-28T16:44:23.788Z,0.90
2022-11-28T16:46:57.345Z,0.90
2022-11-28T16:49:45.570Z,0.80
2022-11-28T16:52:25.932Z,0.90
2022-11-28T16:55:00.700Z,1.13
2022-11-28T16:57:49.187Z,0.98
2022-11-28T17:00:21.554Z,1.10
2022-11-28T17:02:55.974Z,1.13
2022-11-28T17:05:26.802Z,1.20
2022-11-28T17:07:58.124Z,1.50
2022-11-28T17:10:29.380Z,1.30
2022-11-28T17:13:00.112Z,1.30
2022-11-28T17:15:30.851Z,1.23
2022-11-28T17:18:01.954Z,1.20
2022-11-28T17:20:32.994Z,1.30
2022-11-28T17:23:04.464Z,1.30
2022-11-28T17:25:35.401Z,1.52
2022-11-28T17:28:06.840Z,1.10
2022-11-28T17:30:38.062Z,1.00
2022-11-28T17:35:44.193Z,1.00
2022-11-28T17:38:15.217Z,1.30
2022-11-28T17:40:48.215Z,1.10
2022-11-28T17:43:23.804Z,1.20
2022-11-28T17:45:54.575Z,2.20
2022-11-28T17:48:26.218Z,1.90
2022-11-28T17:50:57.527Z,1.77
2022-11-28T17:53:28.320Z,1.83
2022-11-28T17:56:01.433Z,1.48
2022-11-28T17:58:32.774Z,1.65
2022-11-28T18:01:03.802Z,1.77
2022-11-28T18:03:34.749Z,1.50
2022-11-28T18:08:37.881Z,1.40
2022-11-28T18:11:11.689Z,1.50
2022-11-28T18:13:43.949Z,1.60
2022-11-28T18:16:16.462Z,1.15
2022-11-28T18:18:47.931Z,1.10
2022-11-28T18:21:19.135Z,1.20
2022-11-28T18:23:52.311Z,1.10
2022-11-28T18:26:25.457Z,1.20
2022-11-28T18:28:57.363Z,1.20
2022-11-28T18:31:30.530Z,0.95
2022-11-28T18:34:04.983Z,1.00
2022-11-28T18:36:40.563Z,0.93
2022-11-28T18:39:16.699Z,1.00
2022-11-28T18:41:48.061Z,1.10
2022-11-28T18:44:19.805Z,0.90
2022-11-28T18:46:51.897Z,1.05
2022-11-28T18:49:23.134Z,1.30
2022-11-28T18:51:54.012Z,1.23
2022-11-28T18:54:27.410Z,1.17
2022-11-28T18:56:58.951Z,1.00
2022-11-28T18:59:31.940Z,0.70
2022-11-28T19:02:03.277Z,0.80
2022-11-28T19:04:34.349Z,0.90
2022-11-28T19:07:05.621Z,0.80
2022-11-28T19:09:36.415Z,0.70
2022-11-28T19:12:08.739Z,0.80
2022-11-28T19:14:39.952Z,0.80
2022-11-28T19:17:13.469Z,0.77
2022-11-28T19:19:45.576Z,0.80
2022-11-28T19:22:16.743Z,0.80
2022-11-28T19:24:47.628Z,0.70
2022-11-28T19:27:18.779Z,0.65
2022-11-28T19:29:50.093Z,0.85
2022-11-28T19:34:53.768Z,0.70
2022-11-28T19:37:24.546Z,1.00
2022-11-28T19:39:59.757Z,0.70
2022-11-28T19:42:35.531Z,0.70
2022-11-28T19:45:06.721Z,0.70
2022-11-28T19:47:37.762Z,0.77
2022-11-28T19:50:11.088Z,0.75
2022-11-28T19:52:42.433Z,0.80
2022-11-28T19:55:13.649Z,0.93
2022-11-28T19:57:44.664Z,0.60
2022-11-28T20:00:16.792Z,0.90
2022-11-28T20:02:51.829Z,0.63
2022-11-28T20:05:23.046Z,0.73
2022-11-28T20:07:58.349Z,0.90
2022-11-28T20:10:30.133Z,0.70
2022-11-28T20:13:01.296Z,1.00
2022-11-28T20:15:32.532Z,0.60
2022-11-28T20:18:04.070Z,0.60
2022-11-28T20:20:36.111Z,0.68
2022-11-28T20:23:07.026Z,0.70
2022-11-28T20:25:38.158Z,0.50
2022-11-28T20:28:09.516Z,0.70
2022-11-28T20:30:41.145Z,0.82
2022-11-28T20:33:12.112Z,0.80
2022-11-28T20:35:44.181Z,0.60
2022-11-28T20:38:14.884Z,0.90
2022-11-28T20:40:45.815Z,0.60
2022-11-28T20:43:16.517Z,0.80
2022-11-28T20:45:47.551Z,0.50
2022-11-28T20:48:18.778Z,0.50
2022-11-28T20:50:49.696Z,0.70
2022-11-28T20:53:26.454Z,0.60
2022-11-28T20:56:05.660Z,0.60
2022-11-28T20:58:36.760Z,0.50
2022-11-28T21:01:08.101Z,0.47
2022-11-28T21:03:38.830Z,0.55
2022-11-28T21:06:09.895Z,0.50
2022-11-28T21:08:41.623Z,0.70
2022-11-28T21:11:50.247Z,0.80
2022-11-28T21:14:13.391Z,0.73
2022-11-28T21:16:45.196Z,0.50
2022-11-28T21:19:16.033Z,0.80
2022-11-28T21:21:47.027Z,0.55
2022-11-28T21:24:17.795Z,0.75
2022-11-28T21:26:53.575Z,0.55
2022-11-28T21:29:26.486Z,0.90
2022-11-28T21:31:57.533Z,0.70
2022-11-28T21:34:28.565Z,0.50
2022-11-28T21:39:30.625Z,0.60
2022-11-28T21:42:03.229Z,0.82
2022-11-28T21:44:34.012Z,0.60
2022-11-28T21:47:06.496Z,0.60
2022-11-28T21:49:37.486Z,0.70
2022-11-28T21:52:10.899Z,0.60
2022-11-28T21:54:42.152Z,1.10
2022-11-28T21:57:12.950Z,0.43
2022-11-28T21:59:44.466Z,0.60
2022-11-28T22:02:20.200Z,0.50
2022-11-28T22:04:51.378Z,0.68
2022-11-28T22:07:22.513Z,0.63
2022-11-28T22:09:55.621Z,0.60
2022-11-28T22:12:26.633Z,0.63
2022-11-28T22:14:57.546Z,0.60
2022-11-28T22:17:29.745Z,0.60
2022-11-28T22:20:01.097Z,0.47
2022-11-28T22:22:33.526Z,0.40
2022-11-28T22:25:04.525Z,0.40
2022-11-28T22:27:37.058Z,0.50
2022-11-28T22:30:11.145Z,0.63
2022-11-28T22:32:41.988Z,0.50
2022-11-28T22:35:12.712Z,0.52
2022-11-28T22:40:15.713Z,0.50
2022-11-28T22:42:46.929Z,0.40
2022-11-28T22:45:17.789Z,0.40
2022-11-28T22:47:49.069Z,0.60
2022-11-28T22:50:20.235Z,0.50
2022-11-28T22:52:51.049Z,0.50
2022-11-28T22:55:22.147Z,0.50
2022-11-28T22:57:53.301Z,0.35
2022-11-28T23:00:24.599Z,0.40
2022-11-28T23:02:55.818Z,0.60
2022-11-28T23:05:27.049Z,0.55
2022-11-28T23:07:58.037Z,0.60
2022-11-28T23:10:30.224Z,0.50
2022-11-28T23:13:01.369Z,0.50
2022-11-28T23:15:32.403Z,0.40
2022-11-28T23:18:03.552Z,0.80
2022-11-28T23:20:34.513Z,0.75
2022-11-28T23:23:06.043Z,1.10
2022-11-28T23:25:38.225Z,0.70
2022-11-28T23:28:09.502Z,0.90
2022-11-28T23:30:40.585Z,0.90
2022-11-28T23:33:11.565Z,0.68
2022-11-28T23:35:42.605Z,0.70
2022-11-28T23:38:14.140Z,0.60
2022-11-28T23:40:45.052Z,0.57
2022-11-28T23:43:16.065Z,0.45
2022-11-28T23:45:46.838Z,0.98
2022-11-28T23:48:18.181Z,0.60
2022-11-28T23:50:49.537Z,0.57
2022-11-28T23:53:20.357Z,0.50
2022-11-28T23:55:51.273Z,0.50
2022-11-28T23:58:22.541Z,0.50
